Pagina principale
METAR-TAF:

METAR-TAF

Aeroporti :

La Chaux-de-Fonds, Svizzera

latitudine: 47-05-03N, longitudine: 006-47-37E, altezza: 1027 m

Osservazione

Il bollettino è stato emesso 16 minuti fa, alle 04:20 UTC
Vento 2 kt da ovest
Temperature 9°C
Umidità 100%
Pressione 1017 hPa
Visibilità 10 km o più
nessuna nube inferiore a 1500 m e nessun cumulonembo

METAR: LSGC 030420Z AUTO 26002KT CAVOK 09/09 Q1017

Ora: 06:36 (04:36 UTC)

Previsione

Il bollettino è stato emesso 14 ore e 11 minuti fa, alle 14:25 UTC
Previsione valida dal 02 alle 15 UTC al 02 alle 24 UTC
Vento 5 kt da sud-ovest
Visibilità 10 km o più
Poco nuvoloso ad un'altezza di 1500 ft
Nubi sparse ad un'altezza di 3000 ft
Probabilità 30% :
Temporaneamente
dal 02 alle 15 UTC al 02 alle 17 UTC
Vento 18 kt da ovest
Visibilità: 4500 m
Nuvoloso ad un'altezza di 3000 ft, Cumulo congesto.
rovesci di pioggia

TAF: LSGC 021425Z 0215/0224 22005KT 9999 FEW015 SCT030 PROB30 TEMPO 0215/0217 27018KT 4500 SHRA BKN030TCU

Osservazioni e previsioni meteorologiche di più di 4000 aeroporti (messaggi METAR e TAF).

Le stazioni disponibili sono rappresentate dai dischi gialli e rossi sulla carta.

Puntare il mouse per vedere il nome della stazione.

Clicca sopra per visualizzare le osservazioni e previsioni meteorologiche.

Per cambiare la mappa : fare clic sui pulsanti verdi con una croce nera per ingrandire, il pulsante verde con un trattino per diminuire, o sulla freccia verde per le mappe adiacenti.


METAR-TAF: